Sterling/Rock Falls, Illinois
Current Conditions -  °F | °C
As of 9:15 AM on Wednesday 22 Oct 2014 (Local Time) from KSQI Reporting Station
Clear Clear  
Wind Chill: 39°   Ceiling: Unl
Heat Index: 43°   Visibility: 10mi
Dew Point: 37°   Wind: 6mph
Humidity: 81%   Direction: 90°E
Pressure: 30.35"   Gusts: NA
Location:  41.73°N, 89.68°W
Report Text: KSQI 221415Z AUTO 09005KT 10SM CLR 06/03 A3035 RMK AO1
Loading
Personal Weather Stations






























Interactive Weather Map New forecast layout! Learn more

10-Day Weather Forecast

Advertisements
Track Severe Weather on mobile